sensor_id;sensor_type;location;lat;lon;timestamp;P1;durP1;ratioP1;P2;durP2;ratioP2
37280;SDS011;23169;41.804;12.596;2022-07-03T00:00:40;11.75;;;4.63;;
37280;SDS011;23169;41.804;12.596;2022-07-03T00:03:08;11.75;;;4.30;;
37280;SDS011;23169;41.804;12.596;2022-07-03T00:05:37;11.18;;;4.47;;
37280;SDS011;23169;41.804;12.596;2022-07-03T00:08:07;17.95;;;4.82;;
37280;SDS011;23169;41.804;12.596;2022-07-03T00:10:35;18.08;;;5.47;;
37280;SDS011;23169;41.804;12.596;2022-07-03T00:13:05;12.38;;;4.50;;
37280;SDS011;23169;41.804;12.596;2022-07-03T00:15:33;11.85;;;4.53;;
37280;SDS011;23169;41.804;12.596;2022-07-03T00:18:02;11.93;;;4.07;;
37280;SDS011;23169;41.804;12.596;2022-07-03T00:20:36;13.50;;;5.57;;
37280;SDS011;23169;41.804;12.596;2022-07-03T00:23:13;17.02;;;4.97;;
37280;SDS011;23169;41.804;12.596;2022-07-03T00:25:44;14.30;;;4.95;;
37280;SDS011;23169;41.804;12.596;2022-07-03T00:28:14;20.15;;;4.65;;
37280;SDS011;23169;41.804;12.596;2022-07-03T00:30:44;14.88;;;4.70;;
37280;SDS011;23169;41.804;12.596;2022-07-03T00:33:15;15.85;;;5.07;;
37280;SDS011;23169;41.804;12.596;2022-07-03T00:35:45;14.65;;;5.20;;
37280;SDS011;23169;41.804;12.596;2022-07-03T00:38:17;15.02;;;5.10;;
37280;SDS011;23169;41.804;12.596;2022-07-03T00:40:46;16.60;;;5.25;;
37280;SDS011;23169;41.804;12.596;2022-07-03T00:43:18;14.43;;;5.72;;
37280;SDS011;23169;41.804;12.596;2022-07-03T00:45:49;12.13;;;5.20;;
37280;SDS011;23169;41.804;12.596;2022-07-03T00:48:18;13.73;;;4.97;;
37280;SDS011;23169;41.804;12.596;2022-07-03T00:50:49;17.45;;;5.00;;
37280;SDS011;23169;41.804;12.596;2022-07-03T00:53:26;19.52;;;6.00;;
37280;SDS011;23169;41.804;12.596;2022-07-03T00:55:56;17.77;;;5.15;;
37280;SDS011;23169;41.804;12.596;2022-07-03T00:58:28;14.43;;;5.30;;
37280;SDS011;23169;41.804;12.596;2022-07-03T01:00:57;20.52;;;5.57;;
37280;SDS011;23169;41.804;12.596;2022-07-03T01:03:26;12.98;;;4.75;;
37280;SDS011;23169;41.804;12.596;2022-07-03T01:05:56;18.00;;;5.32;;
37280;SDS011;23169;41.804;12.596;2022-07-03T01:08:43;15.13;;;4.80;;
37280;SDS011;23169;41.804;12.596;2022-07-03T01:16:40;17.65;;;5.30;;
37280;SDS011;23169;41.804;12.596;2022-07-03T01:30:34;11.45;;;5.30;;
37280;SDS011;23169;41.804;12.596;2022-07-03T01:38:26;12.05;;;4.40;;
37280;SDS011;23169;41.804;12.596;2022-07-03T01:40:56;14.80;;;4.72;;
37280;SDS011;23169;41.804;12.596;2022-07-03T01:43:29;9.63;;;4.18;;
37280;SDS011;23169;41.804;12.596;2022-07-03T01:45:59;14.02;;;4.68;;
37280;SDS011;23169;41.804;12.596;2022-07-03T01:48:31;8.13;;;3.67;;
37280;SDS011;23169;41.804;12.596;2022-07-03T01:51:00;11.75;;;3.97;;
37280;SDS011;23169;41.804;12.596;2022-07-03T01:53:30;10.00;;;3.80;;
37280;SDS011;23169;41.804;12.596;2022-07-03T01:55:59;9.00;;;3.80;;
37280;SDS011;23169;41.804;12.596;2022-07-03T01:58:30;11.27;;;4.80;;
37280;SDS011;23169;41.804;12.596;2022-07-03T02:01:02;16.83;;;4.25;;
37280;SDS011;23169;41.804;12.596;2022-07-03T02:03:34;11.77;;;4.03;;
37280;SDS011;23169;41.804;12.596;2022-07-03T02:09:03;12.73;;;4.68;;
37280;SDS011;23169;41.804;12.596;2022-07-03T02:11:36;14.13;;;4.38;;
37280;SDS011;23169;41.804;12.596;2022-07-03T02:22:11;13.57;;;3.80;;
37280;SDS011;23169;41.804;12.596;2022-07-03T02:24:44;9.25;;;3.75;;
37280;SDS011;23169;41.804;12.596;2022-07-03T02:27:17;13.07;;;4.05;;
37280;SDS011;23169;41.804;12.596;2022-07-03T02:29:50;15.75;;;4.10;;
37280;SDS011;23169;41.804;12.596;2022-07-03T02:32:35;10.20;;;4.30;;
37280;SDS011;23169;41.804;12.596;2022-07-03T02:35:10;10.90;;;4.53;;
37280;SDS011;23169;41.804;12.596;2022-07-03T02:37:48;7.70;;;3.78;;
37280;SDS011;23169;41.804;12.596;2022-07-03T02:40:27;15.85;;;4.28;;
37280;SDS011;23169;41.804;12.596;2022-07-03T02:43:04;11.68;;;4.32;;
37280;SDS011;23169;41.804;12.596;2022-07-03T02:46:01;12.30;;;4.65;;
37280;SDS011;23169;41.804;12.596;2022-07-03T02:49:02;8.48;;;4.03;;
37280;SDS011;23169;41.804;12.596;2022-07-03T02:51:48;16.35;;;4.65;;
37280;SDS011;23169;41.804;12.596;2022-07-03T02:54:25;12.15;;;4.50;;
37280;SDS011;23169;41.804;12.596;2022-07-03T03:05:12;16.40;;;4.82;;
37280;SDS011;23169;41.804;12.596;2022-07-03T03:10:12;10.18;;;4.28;;
37280;SDS011;23169;41.804;12.596;2022-07-03T03:12:42;14.18;;;4.75;;
37280;SDS011;23169;41.804;12.596;2022-07-03T03:15:15;12.13;;;4.60;;
37280;SDS011;23169;41.804;12.596;2022-07-03T03:17:44;9.38;;;4.25;;
37280;SDS011;23169;41.804;12.596;2022-07-03T03:20:17;11.35;;;4.28;;
37280;SDS011;23169;41.804;12.596;2022-07-03T03:22:58;11.55;;;4.28;;
37280;SDS011;23169;41.804;12.596;2022-07-03T03:25:42;14.23;;;4.18;;
37280;SDS011;23169;41.804;12.596;2022-07-03T03:28:11;11.27;;;4.40;;
37280;SDS011;23169;41.804;12.596;2022-07-03T03:30:42;14.60;;;5.85;;
37280;SDS011;23169;41.804;12.596;2022-07-03T03:33:10;11.00;;;4.65;;
37280;SDS011;23169;41.804;12.596;2022-07-03T03:35:39;14.68;;;4.68;;
37280;SDS011;23169;41.804;12.596;2022-07-03T03:38:08;10.50;;;4.30;;
37280;SDS011;23169;41.804;12.596;2022-07-03T03:40:37;8.23;;;4.10;;
37280;SDS011;23169;41.804;12.596;2022-07-03T03:43:06;8.77;;;4.50;;
37280;SDS011;23169;41.804;12.596;2022-07-03T03:45:36;9.35;;;4.18;;
37280;SDS011;23169;41.804;12.596;2022-07-03T03:48:04;11.68;;;4.43;;
37280;SDS011;23169;41.804;12.596;2022-07-03T03:50:35;17.42;;;4.43;;
37280;SDS011;23169;41.804;12.596;2022-07-03T03:53:03;12.13;;;4.20;;
37280;SDS011;23169;41.804;12.596;2022-07-03T03:55:32;14.23;;;4.55;;
37280;SDS011;23169;41.804;12.596;2022-07-03T03:58:00;12.90;;;4.50;;
37280;SDS011;23169;41.804;12.596;2022-07-03T04:00:30;10.57;;;3.78;;
37280;SDS011;23169;41.804;12.596;2022-07-03T04:02:58;14.25;;;4.15;;
37280;SDS011;23169;41.804;12.596;2022-07-03T04:05:27;11.85;;;3.78;;
37280;SDS011;23169;41.804;12.596;2022-07-03T04:07:56;11.20;;;5.20;;
37280;SDS011;23169;41.804;12.596;2022-07-03T04:10:24;7.63;;;3.60;;
37280;SDS011;23169;41.804;12.596;2022-07-03T04:12:52;13.02;;;3.67;;
37280;SDS011;23169;41.804;12.596;2022-07-03T04:15:20;14.93;;;4.10;;
37280;SDS011;23169;41.804;12.596;2022-07-03T04:17:51;11.70;;;4.38;;
37280;SDS011;23169;41.804;12.596;2022-07-03T04:20:19;9.52;;;3.42;;
37280;SDS011;23169;41.804;12.596;2022-07-03T04:22:48;9.82;;;4.00;;
37280;SDS011;23169;41.804;12.596;2022-07-03T04:25:17;9.93;;;3.80;;
37280;SDS011;23169;41.804;12.596;2022-07-03T04:27:46;17.13;;;4.28;;
37280;SDS011;23169;41.804;12.596;2022-07-03T04:30:14;11.43;;;3.70;;
37280;SDS011;23169;41.804;12.596;2022-07-03T04:32:42;10.30;;;3.78;;
37280;SDS011;23169;41.804;12.596;2022-07-03T04:35:10;9.43;;;3.40;;
37280;SDS011;23169;41.804;12.596;2022-07-03T04:37:39;13.27;;;3.92;;
37280;SDS011;23169;41.804;12.596;2022-07-03T04:40:11;8.48;;;3.78;;
37280;SDS011;23169;41.804;12.596;2022-07-03T04:42:40;13.70;;;4.03;;
37280;SDS011;23169;41.804;12.596;2022-07-03T04:45:08;14.13;;;3.60;;
37280;SDS011;23169;41.804;12.596;2022-07-03T04:47:38;12.80;;;3.78;;
37280;SDS011;23169;41.804;12.596;2022-07-03T04:50:06;6.38;;;3.45;;
37280;SDS011;23169;41.804;12.596;2022-07-03T04:52:35;11.70;;;4.50;;
37280;SDS011;23169;41.804;12.596;2022-07-03T04:55:03;10.20;;;3.67;;
37280;SDS011;23169;41.804;12.596;2022-07-03T04:57:32;9.80;;;3.63;;
37280;SDS011;23169;41.804;12.596;2022-07-03T05:00:00;8.80;;;3.75;;
37280;SDS011;23169;41.804;12.596;2022-07-03T05:02:29;14.00;;;4.40;;
37280;SDS011;23169;41.804;12.596;2022-07-03T05:04:57;8.52;;;4.00;;
37280;SDS011;23169;41.804;12.596;2022-07-03T05:07:26;11.27;;;4.00;;
37280;SDS011;23169;41.804;12.596;2022-07-03T05:09:54;17.08;;;4.38;;
37280;SDS011;23169;41.804;12.596;2022-07-03T05:12:22;11.65;;;3.78;;
37280;SDS011;23169;41.804;12.596;2022-07-03T05:14:50;12.10;;;3.85;;
37280;SDS011;23169;41.804;12.596;2022-07-03T05:17:19;10.60;;;4.70;;
37280;SDS011;23169;41.804;12.596;2022-07-03T05:19:50;10.60;;;4.35;;
37280;SDS011;23169;41.804;12.596;2022-07-03T05:22:41;14.43;;;4.97;;
37280;SDS011;23169;41.804;12.596;2022-07-03T05:25:09;14.45;;;5.30;;
37280;SDS011;23169;41.804;12.596;2022-07-03T05:27:37;16.65;;;5.22;;
37280;SDS011;23169;41.804;12.596;2022-07-03T05:30:06;15.18;;;5.18;;
37280;SDS011;23169;41.804;12.596;2022-07-03T05:32:35;16.27;;;5.53;;
37280;SDS011;23169;41.804;12.596;2022-07-03T05:35:03;15.88;;;5.93;;
37280;SDS011;23169;41.804;12.596;2022-07-03T05:37:33;19.80;;;6.18;;
37280;SDS011;23169;41.804;12.596;2022-07-03T05:40:01;18.60;;;6.05;;
37280;SDS011;23169;41.804;12.596;2022-07-03T05:42:31;19.10;;;6.18;;
37280;SDS011;23169;41.804;12.596;2022-07-03T05:45:00;15.68;;;5.80;;
37280;SDS011;23169;41.804;12.596;2022-07-03T05:47:29;19.60;;;5.72;;
37280;SDS011;23169;41.804;12.596;2022-07-03T05:49:59;15.75;;;6.40;;
37280;SDS011;23169;41.804;12.596;2022-07-03T05:52:27;18.90;;;6.35;;
37280;SDS011;23169;41.804;12.596;2022-07-03T05:54:55;21.55;;;6.35;;
37280;SDS011;23169;41.804;12.596;2022-07-03T05:57:24;16.73;;;6.07;;
37280;SDS011;23169;41.804;12.596;2022-07-03T05:59:52;20.30;;;6.63;;
37280;SDS011;23169;41.804;12.596;2022-07-03T06:02:20;13.45;;;6.07;;
37280;SDS011;23169;41.804;12.596;2022-07-03T06:04:49;19.75;;;6.53;;
37280;SDS011;23169;41.804;12.596;2022-07-03T06:07:17;17.05;;;6.70;;
37280;SDS011;23169;41.804;12.596;2022-07-03T06:09:46;18.70;;;6.57;;
37280;SDS011;23169;41.804;12.596;2022-07-03T06:12:17;20.25;;;6.63;;
37280;SDS011;23169;41.804;12.596;2022-07-03T06:14:45;16.60;;;7.20;;
37280;SDS011;23169;41.804;12.596;2022-07-03T06:17:13;16.80;;;6.60;;
37280;SDS011;23169;41.804;12.596;2022-07-03T06:19:42;17.10;;;6.72;;
37280;SDS011;23169;41.804;12.596;2022-07-03T06:22:10;17.17;;;7.07;;
37280;SDS011;23169;41.804;12.596;2022-07-03T06:24:39;16.67;;;6.63;;
37280;SDS011;23169;41.804;12.596;2022-07-03T06:27:07;17.30;;;7.10;;
37280;SDS011;23169;41.804;12.596;2022-07-03T06:29:35;19.67;;;7.32;;
37280;SDS011;23169;41.804;12.596;2022-07-03T06:32:03;16.23;;;6.53;;
37280;SDS011;23169;41.804;12.596;2022-07-03T06:34:32;18.13;;;6.95;;
37280;SDS011;23169;41.804;12.596;2022-07-03T06:37:00;16.10;;;6.47;;
37280;SDS011;23169;41.804;12.596;2022-07-03T06:39:28;21.52;;;7.65;;
37280;SDS011;23169;41.804;12.596;2022-07-03T06:41:57;18.55;;;6.95;;
37280;SDS011;23169;41.804;12.596;2022-07-03T06:44:26;15.30;;;6.28;;
37280;SDS011;23169;41.804;12.596;2022-07-03T06:46:55;16.83;;;6.90;;
37280;SDS011;23169;41.804;12.596;2022-07-03T06:49:23;19.75;;;7.53;;
37280;SDS011;23169;41.804;12.596;2022-07-03T06:51:52;23.90;;;7.07;;
37280;SDS011;23169;41.804;12.596;2022-07-03T06:54:20;18.05;;;7.15;;
37280;SDS011;23169;41.804;12.596;2022-07-03T06:56:48;18.70;;;6.80;;
37280;SDS011;23169;41.804;12.596;2022-07-03T06:59:16;20.60;;;6.72;;
37280;SDS011;23169;41.804;12.596;2022-07-03T07:01:44;14.18;;;6.30;;
37280;SDS011;23169;41.804;12.596;2022-07-03T07:04:13;17.48;;;6.28;;
37280;SDS011;23169;41.804;12.596;2022-07-03T07:06:41;16.45;;;6.13;;
37280;SDS011;23169;41.804;12.596;2022-07-03T07:09:13;24.08;;;7.35;;
37280;SDS011;23169;41.804;12.596;2022-07-03T07:11:42;17.20;;;6.50;;
37280;SDS011;23169;41.804;12.596;2022-07-03T07:14:10;20.58;;;6.60;;
37280;SDS011;23169;41.804;12.596;2022-07-03T07:16:39;18.38;;;6.55;;
37280;SDS011;23169;41.804;12.596;2022-07-03T07:19:09;14.52;;;6.10;;
37280;SDS011;23169;41.804;12.596;2022-07-03T07:21:37;16.75;;;6.40;;
37280;SDS011;23169;41.804;12.596;2022-07-03T07:24:05;21.15;;;6.25;;
37280;SDS011;23169;41.804;12.596;2022-07-03T07:26:33;15.30;;;5.75;;
37280;SDS011;23169;41.804;12.596;2022-07-03T07:29:01;13.98;;;5.55;;
37280;SDS011;23169;41.804;12.596;2022-07-03T07:31:33;16.48;;;5.95;;
37280;SDS011;23169;41.804;12.596;2022-07-03T07:34:01;16.55;;;5.47;;
37280;SDS011;23169;41.804;12.596;2022-07-03T07:36:32;16.92;;;5.57;;
37280;SDS011;23169;41.804;12.596;2022-07-03T07:39:01;14.30;;;5.22;;
37280;SDS011;23169;41.804;12.596;2022-07-03T07:41:29;17.20;;;6.13;;
37280;SDS011;23169;41.804;12.596;2022-07-03T07:43:57;17.70;;;6.03;;
37280;SDS011;23169;41.804;12.596;2022-07-03T07:46:26;15.05;;;4.88;;
37280;SDS011;23169;41.804;12.596;2022-07-03T07:48:55;15.02;;;5.28;;
37280;SDS011;23169;41.804;12.596;2022-07-03T07:51:23;18.63;;;5.53;;
37280;SDS011;23169;41.804;12.596;2022-07-03T07:53:52;15.13;;;5.53;;
37280;SDS011;23169;41.804;12.596;2022-07-03T07:56:25;10.90;;;5.40;;
37280;SDS011;23169;41.804;12.596;2022-07-03T07:58:53;17.17;;;5.25;;
37280;SDS011;23169;41.804;12.596;2022-07-03T08:01:21;16.52;;;4.70;;
37280;SDS011;23169;41.804;12.596;2022-07-03T08:04:08;14.88;;;4.65;;
37280;SDS011;23169;41.804;12.596;2022-07-03T08:09:22;16.48;;;5.18;;
37280;SDS011;23169;41.804;12.596;2022-07-03T08:11:51;16.40;;;4.65;;
37280;SDS011;23169;41.804;12.596;2022-07-03T08:14:19;16.48;;;4.93;;
37280;SDS011;23169;41.804;12.596;2022-07-03T08:16:47;19.98;;;4.65;;
37280;SDS011;23169;41.804;12.596;2022-07-03T08:19:16;16.48;;;4.50;;
37280;SDS011;23169;41.804;12.596;2022-07-03T08:21:44;13.25;;;4.43;;
37280;SDS011;23169;41.804;12.596;2022-07-03T08:24:12;15.30;;;4.03;;
37280;SDS011;23169;41.804;12.596;2022-07-03T08:26:41;18.30;;;4.10;;
37280;SDS011;23169;41.804;12.596;2022-07-03T08:29:09;13.95;;;4.30;;
37280;SDS011;23169;41.804;12.596;2022-07-03T08:31:38;18.73;;;4.65;;
37280;SDS011;23169;41.804;12.596;2022-07-03T08:34:07;18.45;;;4.53;;
37280;SDS011;23169;41.804;12.596;2022-07-03T08:36:41;13.52;;;4.55;;
37280;SDS011;23169;41.804;12.596;2022-07-03T08:39:09;13.93;;;4.50;;
37280;SDS011;23169;41.804;12.596;2022-07-03T08:41:39;14.88;;;4.45;;
37280;SDS011;23169;41.804;12.596;2022-07-03T08:44:08;13.82;;;4.00;;
37280;SDS011;23169;41.804;12.596;2022-07-03T08:46:39;16.90;;;4.15;;
37280;SDS011;23169;41.804;12.596;2022-07-03T08:49:08;17.55;;;4.35;;
37280;SDS011;23169;41.804;12.596;2022-07-03T08:51:37;10.35;;;3.88;;
37280;SDS011;23169;41.804;12.596;2022-07-03T08:54:09;11.93;;;3.80;;
37280;SDS011;23169;41.804;12.596;2022-07-03T08:56:38;15.95;;;4.57;;
37280;SDS011;23169;41.804;12.596;2022-07-03T08:59:07;12.52;;;3.70;;
37280;SDS011;23169;41.804;12.596;2022-07-03T09:01:35;20.40;;;5.38;;
37280;SDS011;23169;41.804;12.596;2022-07-03T09:04:10;18.83;;;4.63;;
37280;SDS011;23169;41.804;12.596;2022-07-03T09:06:44;15.45;;;4.45;;
37280;SDS011;23169;41.804;12.596;2022-07-03T09:09:12;17.65;;;4.18;;
37280;SDS011;23169;41.804;12.596;2022-07-03T09:11:42;17.02;;;3.92;;
37280;SDS011;23169;41.804;12.596;2022-07-03T09:14:10;15.15;;;5.18;;
37280;SDS011;23169;41.804;12.596;2022-07-03T09:16:39;15.27;;;4.88;;
37280;SDS011;23169;41.804;12.596;2022-07-03T09:19:07;20.05;;;4.93;;
37280;SDS011;23169;41.804;12.596;2022-07-03T09:21:39;16.80;;;4.22;;
37280;SDS011;23169;41.804;12.596;2022-07-03T09:24:10;10.73;;;4.00;;
37280;SDS011;23169;41.804;12.596;2022-07-03T09:26:49;11.38;;;3.88;;
37280;SDS011;23169;41.804;12.596;2022-07-03T09:29:19;14.30;;;4.25;;
37280;SDS011;23169;41.804;12.596;2022-07-03T09:31:54;14.45;;;4.18;;
37280;SDS011;23169;41.804;12.596;2022-07-03T09:34:23;15.52;;;5.25;;
37280;SDS011;23169;41.804;12.596;2022-07-03T09:36:53;19.50;;;4.32;;
37280;SDS011;23169;41.804;12.596;2022-07-03T09:44:34;20.60;;;4.57;;
37280;SDS011;23169;41.804;12.596;2022-07-03T09:47:08;14.68;;;4.38;;
37280;SDS011;23169;41.804;12.596;2022-07-03T09:50:10;14.18;;;4.30;;
37280;SDS011;23169;41.804;12.596;2022-07-03T09:52:35;15.88;;;4.50;;
37280;SDS011;23169;41.804;12.596;2022-07-03T09:57:38;17.95;;;4.95;;
37280;SDS011;23169;41.804;12.596;2022-07-03T10:02:52;15.33;;;5.07;;
37280;SDS011;23169;41.804;12.596;2022-07-03T10:05:36;17.92;;;4.30;;
37280;SDS011;23169;41.804;12.596;2022-07-03T10:08:09;13.18;;;4.32;;
37280;SDS011;23169;41.804;12.596;2022-07-03T10:10:43;16.35;;;4.10;;
37280;SDS011;23169;41.804;12.596;2022-07-03T10:13:12;17.05;;;4.45;;
37280;SDS011;23169;41.804;12.596;2022-07-03T10:15:42;15.68;;;4.65;;
37280;SDS011;23169;41.804;12.596;2022-07-03T10:18:12;16.77;;;4.70;;
37280;SDS011;23169;41.804;12.596;2022-07-03T10:23:15;13.68;;;4.18;;
37280;SDS011;23169;41.804;12.596;2022-07-03T10:25:44;10.77;;;3.95;;
37280;SDS011;23169;41.804;12.596;2022-07-03T10:28:13;17.52;;;5.15;;
37280;SDS011;23169;41.804;12.596;2022-07-03T10:30:43;14.98;;;4.35;;
37280;SDS011;23169;41.804;12.596;2022-07-03T10:33:12;16.00;;;5.47;;
37280;SDS011;23169;41.804;12.596;2022-07-03T10:35:43;13.95;;;4.82;;
37280;SDS011;23169;41.804;12.596;2022-07-03T10:41:12;16.65;;;4.40;;
37280;SDS011;23169;41.804;12.596;2022-07-03T10:44:12;16.95;;;4.28;;
37280;SDS011;23169;41.804;12.596;2022-07-03T10:47:00;13.15;;;4.10;;
37280;SDS011;23169;41.804;12.596;2022-07-03T10:49:28;15.15;;;4.45;;
37280;SDS011;23169;41.804;12.596;2022-07-03T10:51:58;15.30;;;4.55;;
37280;SDS011;23169;41.804;12.596;2022-07-03T10:54:33;9.98;;;3.92;;
37280;SDS011;23169;41.804;12.596;2022-07-03T10:57:07;20.60;;;4.88;;
37280;SDS011;23169;41.804;12.596;2022-07-03T11:07:26;14.63;;;4.22;;
37280;SDS011;23169;41.804;12.596;2022-07-03T11:25:55;13.90;;;4.32;;
37280;SDS011;23169;41.804;12.596;2022-07-03T11:31:16;19.15;;;4.97;;
37280;SDS011;23169;41.804;12.596;2022-07-03T11:33:48;18.13;;;4.47;;
37280;SDS011;23169;41.804;12.596;2022-07-03T11:36:29;17.63;;;4.63;;
37280;SDS011;23169;41.804;12.596;2022-07-03T11:44:04;12.52;;;4.22;;
37280;SDS011;23169;41.804;12.596;2022-07-03T11:46:34;19.88;;;4.45;;
37280;SDS011;23169;41.804;12.596;2022-07-03T11:49:07;16.98;;;4.40;;
37280;SDS011;23169;41.804;12.596;2022-07-03T11:52:04;15.23;;;4.75;;
37280;SDS011;23169;41.804;12.596;2022-07-03T11:54:49;11.70;;;4.38;;
37280;SDS011;23169;41.804;12.596;2022-07-03T11:57:18;18.63;;;5.20;;
37280;SDS011;23169;41.804;12.596;2022-07-03T11:59:47;17.55;;;5.07;;
37280;SDS011;23169;41.804;12.596;2022-07-03T12:02:18;18.50;;;4.97;;
37280;SDS011;23169;41.804;12.596;2022-07-03T12:04:47;19.60;;;4.45;;
37280;SDS011;23169;41.804;12.596;2022-07-03T12:07:16;19.20;;;4.57;;
37280;SDS011;23169;41.804;12.596;2022-07-03T12:09:49;13.90;;;4.95;;
37280;SDS011;23169;41.804;12.596;2022-07-03T12:12:17;15.95;;;4.65;;
37280;SDS011;23169;41.804;12.596;2022-07-03T12:14:55;14.30;;;4.25;;
37280;SDS011;23169;41.804;12.596;2022-07-03T12:17:26;17.30;;;4.40;;
37280;SDS011;23169;41.804;12.596;2022-07-03T12:19:55;10.13;;;4.28;;
37280;SDS011;23169;41.804;12.596;2022-07-03T12:22:29;13.18;;;4.35;;
37280;SDS011;23169;41.804;12.596;2022-07-03T12:25:05;13.98;;;4.57;;
37280;SDS011;23169;41.804;12.596;2022-07-03T12:27:44;21.08;;;6.07;;
37280;SDS011;23169;41.804;12.596;2022-07-03T12:30:17;14.27;;;4.35;;
37280;SDS011;23169;41.804;12.596;2022-07-03T12:32:47;20.33;;;5.03;;
37280;SDS011;23169;41.804;12.596;2022-07-03T12:35:25;16.20;;;4.72;;
37280;SDS011;23169;41.804;12.596;2022-07-03T12:37:55;23.75;;;4.75;;
37280;SDS011;23169;41.804;12.596;2022-07-03T12:40:24;15.02;;;4.25;;
37280;SDS011;23169;41.804;12.596;2022-07-03T12:42:53;17.80;;;4.68;;
37280;SDS011;23169;41.804;12.596;2022-07-03T12:45:27;19.70;;;5.28;;
37280;SDS011;23169;41.804;12.596;2022-07-03T12:47:59;13.90;;;4.25;;
37280;SDS011;23169;41.804;12.596;2022-07-03T12:53:27;19.65;;;4.53;;
37280;SDS011;23169;41.804;12.596;2022-07-03T12:55:59;16.92;;;4.38;;
37280;SDS011;23169;41.804;12.596;2022-07-03T12:58:30;19.35;;;5.32;;
37280;SDS011;23169;41.804;12.596;2022-07-03T13:01:27;16.83;;;4.63;;
37280;SDS011;23169;41.804;12.596;2022-07-03T13:06:25;10.75;;;4.65;;
37280;SDS011;23169;41.804;12.596;2022-07-03T13:08:56;14.48;;;4.38;;
37280;SDS011;23169;41.804;12.596;2022-07-03T13:14:10;17.45;;;5.13;;
37280;SDS011;23169;41.804;12.596;2022-07-03T13:16:44;12.95;;;4.68;;
37280;SDS011;23169;41.804;12.596;2022-07-03T13:19:13;15.23;;;4.43;;
37280;SDS011;23169;41.804;12.596;2022-07-03T13:21:43;15.45;;;4.18;;
37280;SDS011;23169;41.804;12.596;2022-07-03T13:24:13;12.98;;;4.32;;
37280;SDS011;23169;41.804;12.596;2022-07-03T13:26:43;23.17;;;4.80;;
37280;SDS011;23169;41.804;12.596;2022-07-03T13:29:12;14.45;;;4.43;;
37280;SDS011;23169;41.804;12.596;2022-07-03T13:31:40;12.52;;;4.22;;
37280;SDS011;23169;41.804;12.596;2022-07-03T13:34:09;12.85;;;4.10;;
37280;SDS011;23169;41.804;12.596;2022-07-03T13:36:37;17.25;;;4.75;;
37280;SDS011;23169;41.804;12.596;2022-07-03T13:39:05;10.38;;;4.63;;
37280;SDS011;23169;41.804;12.596;2022-07-03T13:41:36;13.65;;;4.30;;
37280;SDS011;23169;41.804;12.596;2022-07-03T13:44:04;11.02;;;4.68;;
37280;SDS011;23169;41.804;12.596;2022-07-03T13:46:33;15.55;;;4.70;;
37280;SDS011;23169;41.804;12.596;2022-07-03T13:49:04;11.63;;;4.05;;
37280;SDS011;23169;41.804;12.596;2022-07-03T13:51:33;13.27;;;3.97;;
37280;SDS011;23169;41.804;12.596;2022-07-03T13:54:01;8.90;;;3.95;;
37280;SDS011;23169;41.804;12.596;2022-07-03T13:56:32;10.52;;;4.15;;
37280;SDS011;23169;41.804;12.596;2022-07-03T13:59:00;18.38;;;4.53;;
37280;SDS011;23169;41.804;12.596;2022-07-03T14:01:29;11.05;;;4.00;;
37280;SDS011;23169;41.804;12.596;2022-07-03T14:03:57;13.02;;;4.72;;
37280;SDS011;23169;41.804;12.596;2022-07-03T14:06:25;18.52;;;5.32;;
37280;SDS011;23169;41.804;12.596;2022-07-03T14:09:00;14.75;;;4.32;;
37280;SDS011;23169;41.804;12.596;2022-07-03T14:11:29;16.30;;;4.68;;
37280;SDS011;23169;41.804;12.596;2022-07-03T14:13:57;12.15;;;4.47;;
37280;SDS011;23169;41.804;12.596;2022-07-03T14:16:25;10.75;;;4.28;;
37280;SDS011;23169;41.804;12.596;2022-07-03T14:18:54;13.05;;;4.43;;
37280;SDS011;23169;41.804;12.596;2022-07-03T14:21:22;13.65;;;4.25;;
37280;SDS011;23169;41.804;12.596;2022-07-03T14:23:52;15.73;;;4.00;;
37280;SDS011;23169;41.804;12.596;2022-07-03T14:26:21;13.00;;;4.30;;
37280;SDS011;23169;41.804;12.596;2022-07-03T14:29:08;14.95;;;4.40;;
37280;SDS011;23169;41.804;12.596;2022-07-03T14:31:58;11.70;;;4.03;;
37280;SDS011;23169;41.804;12.596;2022-07-03T14:34:44;14.48;;;4.28;;
37280;SDS011;23169;41.804;12.596;2022-07-03T14:37:13;13.60;;;4.05;;
37280;SDS011;23169;41.804;12.596;2022-07-03T14:39:45;12.68;;;4.15;;
37280;SDS011;23169;41.804;12.596;2022-07-03T14:42:14;15.25;;;5.40;;
37280;SDS011;23169;41.804;12.596;2022-07-03T14:44:44;13.27;;;4.03;;
37280;SDS011;23169;41.804;12.596;2022-07-03T14:47:13;18.88;;;4.05;;
37280;SDS011;23169;41.804;12.596;2022-07-03T14:49:42;10.23;;;3.78;;
37280;SDS011;23169;41.804;12.596;2022-07-03T14:52:11;11.32;;;3.53;;
37280;SDS011;23169;41.804;12.596;2022-07-03T14:54:40;11.45;;;3.92;;
37280;SDS011;23169;41.804;12.596;2022-07-03T14:57:17;10.60;;;3.47;;
37280;SDS011;23169;41.804;12.596;2022-07-03T15:00:08;12.95;;;4.35;;
37280;SDS011;23169;41.804;12.596;2022-07-03T15:02:48;12.35;;;3.90;;
37280;SDS011;23169;41.804;12.596;2022-07-03T15:05:40;12.70;;;3.58;;
37280;SDS011;23169;41.804;12.596;2022-07-03T15:11:01;7.82;;;4.22;;
37280;SDS011;23169;41.804;12.596;2022-07-03T15:14:09;14.98;;;4.35;;
37280;SDS011;23169;41.804;12.596;2022-07-03T15:16:41;16.60;;;4.90;;
37280;SDS011;23169;41.804;12.596;2022-07-03T15:19:11;15.23;;;4.00;;
37280;SDS011;23169;41.804;12.596;2022-07-03T15:21:40;8.30;;;3.85;;
37280;SDS011;23169;41.804;12.596;2022-07-03T15:24:08;19.13;;;8.18;;
37280;SDS011;23169;41.804;12.596;2022-07-03T15:26:38;11.35;;;4.97;;
37280;SDS011;23169;41.804;12.596;2022-07-03T15:29:08;12.43;;;4.60;;
37280;SDS011;23169;41.804;12.596;2022-07-03T15:31:38;9.98;;;3.72;;
37280;SDS011;23169;41.804;12.596;2022-07-03T15:34:06;13.48;;;4.03;;
37280;SDS011;23169;41.804;12.596;2022-07-03T15:39:17;13.02;;;4.47;;
37280;SDS011;23169;41.804;12.596;2022-07-03T15:44:50;11.18;;;4.55;;
37280;SDS011;23169;41.804;12.596;2022-07-03T15:47:27;18.70;;;4.50;;
37280;SDS011;23169;41.804;12.596;2022-07-03T15:50:26;13.55;;;4.60;;
37280;SDS011;23169;41.804;12.596;2022-07-03T15:53:18;13.82;;;3.97;;
37280;SDS011;23169;41.804;12.596;2022-07-03T15:55:48;15.25;;;4.07;;
37280;SDS011;23169;41.804;12.596;2022-07-03T15:58:34;10.27;;;5.10;;
37280;SDS011;23169;41.804;12.596;2022-07-03T16:01:09;14.95;;;4.50;;
37280;SDS011;23169;41.804;12.596;2022-07-03T16:04:06;18.40;;;5.57;;
37280;SDS011;23169;41.804;12.596;2022-07-03T16:06:44;13.88;;;4.07;;
37280;SDS011;23169;41.804;12.596;2022-07-03T16:09:14;9.25;;;3.78;;
37280;SDS011;23169;41.804;12.596;2022-07-03T16:11:43;14.20;;;3.90;;
37280;SDS011;23169;41.804;12.596;2022-07-03T16:14:12;13.73;;;4.13;;
37280;SDS011;23169;41.804;12.596;2022-07-03T16:16:42;10.40;;;3.83;;
37280;SDS011;23169;41.804;12.596;2022-07-03T16:19:12;12.98;;;4.07;;
37280;SDS011;23169;41.804;12.596;2022-07-03T16:21:40;9.98;;;4.00;;
37280;SDS011;23169;41.804;12.596;2022-07-03T16:24:10;9.10;;;3.60;;
37280;SDS011;23169;41.804;12.596;2022-07-03T16:26:39;8.45;;;3.80;;
37280;SDS011;23169;41.804;12.596;2022-07-03T16:29:08;9.70;;;3.72;;
37280;SDS011;23169;41.804;12.596;2022-07-03T16:31:37;15.90;;;4.70;;
37280;SDS011;23169;41.804;12.596;2022-07-03T16:34:16;13.40;;;4.10;;
37280;SDS011;23169;41.804;12.596;2022-07-03T16:36:53;10.75;;;4.03;;
37280;SDS011;23169;41.804;12.596;2022-07-03T16:39:30;12.98;;;4.18;;